Time;durP1;ratioP1;P1;durP2;ratioP2;P2;SDS_P1;SDS_P2;PMS_P1;PMS_P2;Temp;Humidity;BMP_temperature;BMP_pressure;BME280_temperature;BME280_humidity;BME280_pressure;Samples;Min_cycle;Max_cycle;Signal;HPM_P1;HPM_P2
2022/04/12 00:00:41;;;;;;;;;6.00;5.75;;;;;13.87;62.31;100053.97;5067999;28;45441;-84
2022/04/12 00:03:07;;;;;;;;;9.25;8.25;;;;;13.96;62.61;100081.38;5069392;28;45350;-80
2022/04/12 00:05:37;;;;;;;;;8.25;7.75;;;;;13.70;62.74;100039.72;5069157;28;45230;-83
2022/04/12 00:08:04;;;;;;;;;7.50;6.75;;;;;13.83;62.67;100065.38;5068583;28;45381;-80
2022/04/12 00:10:31;;;;;;;;;7.25;7.00;;;;;13.93;62.52;100085.72;5068370;28;45008;-81
2022/04/12 00:12:58;;;;;;;;;8.00;8.00;;;;;13.99;62.93;100106.06;5069198;28;45476;-85
2022/04/12 00:15:23;;;;;;;;;6.75;6.75;;;;;13.84;63.13;100093.59;5068440;28;45878;-85
2022/04/12 00:20:33;;;;;;;;;9.00;8.25;;;;;13.70;62.92;100076.69;5072629;28;45141;-83
2022/04/12 00:22:59;;;;;;;;;8.75;8.75;;;;;13.82;62.94;100094.41;5072407;28;45163;-86
2022/04/12 00:25:27;;;;;;;;;7.00;7.00;;;;;13.77;63.31;100096.13;5071867;28;45498;-81
2022/04/12 00:27:54;;;;;;;;;10.25;9.75;;;;;13.72;62.87;100085.50;5072297;28;45273;-80
2022/04/12 00:30:21;;;;;;;;;9.50;9.00;;;;;13.85;63.29;100111.19;5071821;28;45287;-84
2022/04/12 00:32:47;;;;;;;;;7.00;6.25;;;;;13.84;63.12;100122.63;5071693;28;45407;-87
2022/04/12 00:35:13;;;;;;;;;9.00;8.00;;;;;13.41;63.56;100048.19;5071883;28;45220;-84
2022/04/12 00:37:38;;;;;;;;;8.00;7.50;;;;;13.56;63.36;100078.28;5070033;28;45262;-80
2022/04/12 00:40:04;;;;;;;;;10.50;9.25;;;;;13.51;63.35;100069.44;5071012;28;45239;-79
2022/04/12 00:42:31;;;;;;;;;8.25;8.00;;;;;13.50;63.55;100070.31;5070339;28;45580;-81
2022/04/12 00:44:57;;;;;;;;;6.50;6.50;;;;;13.20;63.74;100015.34;5069705;28;45627;-82
2022/04/12 00:47:22;;;;;;;;;8.75;8.75;;;;;13.46;63.88;100064.09;5072374;28;45170;-79
2022/04/12 00:49:48;;;;;;;;;7.50;7.00;;;;;13.26;64.03;100026.03;5071674;28;45424;-79
2022/04/12 00:52:14;;;;;;;;;8.25;8.25;;;;;13.43;63.78;100058.75;5071007;28;45080;-81
2022/04/12 00:54:41;;;;;;;;;7.25;7.25;;;;;13.51;63.73;100093.19;5069429;28;45290;-80
2022/04/12 00:57:07;;;;;;;;;8.00;7.50;;;;;13.02;64.16;100018.66;5068839;28;45519;-80
2022/04/12 00:59:34;;;;;;;;;8.00;7.50;;;;;13.43;63.99;100088.69;5070304;28;45164;-80
2022/04/12 01:02:02;;;;;;;;;7.00;7.00;;;;;13.24;64.12;100062.94;5070533;28;45784;-80
2022/04/12 01:04:27;;;;;;;;;6.25;6.00;;;;;12.93;63.98;100003.56;5070098;28;45622;-80
2022/04/12 01:06:53;;;;;;;;;6.00;6.00;;;;;13.04;64.22;100027.44;5070089;28;44945;-80
2022/04/12 01:09:18;;;;;;;;;9.50;8.75;;;;;13.05;64.28;100029.22;5068255;28;45305;-80
2022/04/12 01:11:48;;;;;;;;;7.00;7.00;;;;;13.06;64.62;100025.75;5070035;28;45903;-80
2022/04/12 01:14:17;;;;;;;;;10.00;9.00;;;;;12.81;64.46;99999.03;5069674;28;45388;-80
2022/04/12 01:16:42;;;;;;;;;8.50;7.75;;;;;12.98;64.69;100027.38;5069172;28;45138;-80
2022/04/12 01:19:08;;;;;;;;;8.75;8.75;;;;;12.95;64.86;100029.97;5068912;28;45061;-80
2022/04/12 01:22:00;;;;;;;;;8.00;8.00;;;;;13.20;64.66;100076.03;5069661;28;45727;-80
2022/04/12 01:24:26;;;;;;;;;6.25;6.00;;;;;13.00;64.42;100050.25;5068892;28;45296;-80
2022/04/12 01:26:52;;;;;;;;;9.00;8.25;;;;;12.88;64.66;100031.66;5069748;28;45162;-80
2022/04/12 01:29:17;;;;;;;;;9.00;8.50;;;;;12.85;64.81;100032.47;5068022;28;45052;-79
2022/04/12 01:31:42;;;;;;;;;8.75;8.00;;;;;12.70;64.93;100002.38;5069544;28;45264;-80
2022/04/12 01:34:08;;;;;;;;;7.25;7.25;;;;;12.86;65.01;100044.81;5067697;28;45263;-80
2022/04/12 01:36:33;;;;;;;;;7.50;6.25;;;;;12.74;65.17;100034.09;5068710;28;44973;-80
2022/04/12 01:38:59;;;;;;;;;10.25;9.00;;;;;12.65;65.47;100019.00;5069775;28;45283;-80
2022/04/12 01:41:24;;;;;;;;;7.00;7.00;;;;;12.63;65.40;100028.66;5069201;28;46970;-79
2022/04/12 01:43:49;;;;;;;;;9.00;9.00;;;;;12.82;65.07;100068.50;5070043;28;45123;-81
2022/04/12 01:46:15;;;;;;;;;9.75;7.75;;;;;12.61;65.09;100029.47;5070058;28;45091;-80
2022/04/12 01:48:40;;;;;;;;;8.50;8.50;;;;;12.78;65.37;100069.31;5069774;28;45060;-79
2022/04/12 01:51:06;;;;;;;;;10.00;8.75;;;;;12.80;65.88;100081.63;5069352;28;45401;-79
2022/04/12 01:53:31;;;;;;;;;10.25;10.00;;;;;12.70;65.41;100058.63;5069518;28;45111;-84
2022/04/12 01:55:56;;;;;;;;;6.00;6.00;;;;;12.82;65.75;100057.94;5068758;28;45421;-80
2022/04/12 01:58:22;;;;;;;;;9.75;8.25;;;;;12.90;65.73;100070.34;5069667;28;45153;-81
2022/04/12 02:00:47;;;;;;;;;7.75;7.00;;;;;12.65;65.52;100026.03;5068842;28;45558;-80
2022/04/12 02:03:15;;;;;;;;;9.00;9.00;;;;;12.71;65.56;100054.22;5069340;28;45238;-81
2022/04/12 02:05:40;;;;;;;;;10.25;9.75;;;;;12.61;65.94;100032.13;5068825;27;45354;-79
2022/04/12 02:08:07;;;;;;;;;8.00;7.00;;;;;12.63;65.68;100030.41;5067778;28;45295;-80
2022/04/12 02:10:33;;;;;;;;;9.00;8.50;;;;;12.79;65.93;100071.94;5068510;28;46357;-80
2022/04/12 02:12:58;;;;;;;;;8.50;7.50;;;;;12.54;65.94;100014.47;5069098;28;45103;-80
2022/04/12 02:15:23;;;;;;;;;10.00;9.00;;;;;12.59;65.80;100015.41;5067430;28;45045;-80
2022/04/12 02:17:49;;;;;;;;;8.00;8.00;;;;;12.60;65.86;100009.28;5068998;28;45224;-80
2022/04/12 02:20:14;;;;;;;;;8.75;8.00;;;;;12.67;65.87;100024.31;5069033;28;45611;-80
2022/04/12 02:22:39;;;;;;;;;8.00;8.00;;;;;12.57;66.16;100001.34;5068903;28;45306;-80
2022/04/12 02:25:05;;;;;;;;;8.25;8.25;;;;;12.64;66.04;100014.59;5068896;28;45347;-79
2022/04/12 02:27:31;;;;;;;;;9.25;8.50;;;;;12.79;66.11;100037.66;5068797;28;45096;-81
2022/04/12 02:29:56;;;;;;;;;8.00;8.00;;;;;12.62;66.03;100021.63;5068899;28;45804;-80
2022/04/12 02:32:21;;;;;;;;;6.00;6.00;;;;;12.62;66.54;100026.00;5065754;28;45220;-80
2022/04/12 02:34:47;;;;;;;;;9.50;9.00;;;;;12.37;66.07;99990.50;5068759;28;45220;-80
2022/04/12 02:37:12;;;;;;;;;7.00;7.00;;;;;12.48;66.43;100009.09;5068498;28;45223;-80
2022/04/12 02:39:38;;;;;;;;;7.67;7.00;;;;;12.88;66.32;100073.84;5067784;28;45952;-80
2022/04/12 02:42:03;;;;;;;;;5.50;5.50;;;;;12.19;66.33;99953.31;5067727;28;45137;-81
2022/04/12 02:44:29;;;;;;;;;5.75;5.75;;;;;12.58;66.38;100032.97;5066641;28;45482;-80
2022/04/12 02:46:54;;;;;;;;;7.00;7.00;;;;;12.58;66.39;100024.19;5068695;28;45250;-81
2022/04/12 02:49:20;;;;;;;;;5.75;5.75;;;;;12.78;66.45;100056.13;5067901;28;45127;-80
2022/04/12 02:51:45;;;;;;;;;7.75;7.75;;;;;12.57;66.31;100014.50;5068002;28;45081;-80
2022/04/12 02:54:11;;;;;;;;;9.75;8.00;;;;;12.56;66.49;100008.34;5068215;28;45266;-81
2022/04/12 02:56:37;;;;;;;;;8.00;8.00;;;;;12.56;66.32;100004.81;5067973;28;45270;-82
2022/04/12 02:59:03;;;;;;;;;6.75;6.75;;;;;12.78;66.53;100035.91;5047921;28;45271;-80
2022/04/12 03:01:28;;;;;;;;;8.00;7.00;;;;;12.66;66.38;100019.94;5055697;28;45081;-81
2022/04/12 03:03:53;;;;;;;;;6.00;6.00;;;;;12.86;66.69;100057.13;5067091;28;45192;-80
2022/04/12 03:06:19;;;;;;;;;7.00;6.67;;;;;12.53;66.37;99989.84;5068135;28;45159;-80
2022/04/12 03:08:44;;;;;;;;;7.50;7.50;;;;;12.65;66.47;100012.84;5067969;28;46024;-81
2022/04/12 03:11:09;;;;;;;;;9.50;7.75;;;;;12.59;66.47;99999.59;5067901;28;45063;-80
2022/04/12 03:13:35;;;;;;;;;8.25;8.00;;;;;12.61;66.54;100003.13;5068167;28;45161;-80
2022/04/12 03:16:00;;;;;;;;;5.75;5.50;;;;;12.51;66.95;99982.78;5068411;28;45025;-80
2022/04/12 03:18:25;;;;;;;;;7.75;7.00;;;;;12.49;66.95;99976.59;5067965;28;45659;-79
2022/04/12 03:20:51;;;;;;;;;7.00;6.75;;;;;12.68;66.78;100012.03;5067783;28;45022;-79
2022/04/12 03:23:17;;;;;;;;;6.50;6.00;;;;;12.28;66.99;99942.94;5068197;28;44949;-81
2022/04/12 03:25:44;;;;;;;;;7.00;7.00;;;;;12.81;66.89;100032.44;5067819;28;45430;-80
2022/04/12 03:28:09;;;;;;;;;7.00;6.00;;;;;12.79;67.31;100032.41;5066899;28;45795;-80
2022/04/12 03:30:35;;;;;;;;;8.50;8.00;;;;;12.59;67.17;100004.88;5064983;28;45120;-80
2022/04/12 03:33:00;;;;;;;;;6.00;6.00;;;;;12.47;67.10;99970.44;5068704;28;45088;-79
2022/04/12 03:35:25;;;;;;;;;10.00;7.00;;;;;12.79;67.11;100037.66;5067101;28;45181;-80
2022/04/12 03:37:51;;;;;;;;;7.00;7.00;;;;;12.87;67.10;100058.88;5067743;28;45367;-80
2022/04/12 03:40:16;;;;;;;;;6.75;6.75;;;;;12.81;66.84;100029.81;5067544;28;45274;-79
2022/04/12 03:42:42;;;;;;;;;9.75;9.25;;;;;12.87;66.80;100046.59;5067191;28;45018;-80
2022/04/12 03:45:08;;;;;;;;;8.25;8.00;;;;;12.77;66.82;100018.31;5066725;28;45150;-80
2022/04/12 03:47:33;;;;;;;;;7.75;7.00;;;;;12.85;66.78;100031.59;5067527;28;45615;-81
2022/04/12 03:49:58;;;;;;;;;6.50;6.50;;;;;12.84;66.66;100035.09;5067776;28;45129;-80
2022/04/12 03:52:24;;;;;;;;;7.00;6.75;;;;;12.53;66.76;99965.25;5067938;28;45050;-80
2022/04/12 03:54:49;;;;;;;;;7.33;7.00;;;;;12.74;66.67;100004.19;5068814;28;45107;-80
2022/04/12 03:57:15;;;;;;;;;8.25;8.25;;;;;12.83;66.82;100012.25;5070523;28;45263;-80
2022/04/12 03:59:40;;;;;;;;;10.00;9.25;;;;;12.92;66.74;100038.75;5064223;28;45697;-80
2022/04/12 04:02:06;;;;;;;;;8.00;7.67;;;;;12.78;66.73;100003.38;5072015;28;45048;-79
2022/04/12 04:04:31;;;;;;;;;7.25;7.00;;;;;12.63;66.65;99983.84;5071000;28;44921;-80
2022/04/12 04:06:57;;;;;;;;;7.50;7.50;;;;;12.83;66.87;100025.41;5071311;28;45150;-79
2022/04/12 04:09:23;;;;;;;;;9.50;9.50;;;;;12.70;66.57;99995.34;5070615;28;45166;-80
2022/04/12 04:11:48;;;;;;;;;6.50;6.25;;;;;12.71;66.75;99994.50;5071344;28;45078;-81
2022/04/12 04:14:15;;;;;;;;;9.00;9.00;;;;;12.61;66.74;99977.69;5071261;28;45045;-80
2022/04/12 04:16:41;;;;;;;;;6.00;6.00;;;;;12.81;66.70;100013.97;5070665;28;45205;-80
2022/04/12 04:19:09;;;;;;;;;7.50;6.75;;;;;12.65;66.95;100004.94;5071030;28;45059;-80
2022/04/12 04:21:35;;;;;;;;;7.00;6.00;;;;;12.80;67.13;100038.56;5070190;28;44963;-80
2022/04/12 04:24:01;;;;;;;;;6.50;5.50;;;;;12.88;66.97;100055.38;5070296;28;44991;-80
2022/04/12 04:26:26;;;;;;;;;5.50;5.50;;;;;12.74;66.94;100038.47;5065710;28;46384;-79
2022/04/12 04:28:51;;;;;;;;;6.00;6.00;;;;;12.69;67.05;100037.53;5070483;28;45089;-79
2022/04/12 04:31:20;;;;;;;;;11.00;8.25;;;;;12.63;66.78;100036.56;5071071;28;45039;-79
2022/04/12 04:33:46;;;;;;;;;8.75;8.25;;;;;12.34;66.87;99999.22;5069450;28;45292;-80
2022/04/12 04:36:11;;;;;;;;;8.75;8.50;;;;;12.36;66.79;100001.88;5069883;28;45600;-79
2022/04/12 04:38:36;;;;;;;;;6.00;6.00;;;;;12.11;66.85;99979.53;5069046;28;45455;-80
2022/04/12 04:41:02;;;;;;;;;7.00;7.00;;;;;12.34;67.16;100036.13;5069908;28;45068;-80
2022/04/12 04:43:27;;;;;;;;;9.00;9.00;;;;;12.10;67.17;99998.84;5070134;28;45069;-83
2022/04/12 04:45:53;;;;;;;;;8.75;8.25;;;;;12.37;67.45;100065.16;5070621;28;45749;-80
2022/04/12 04:48:18;;;;;;;;;7.00;7.00;;;;;11.93;67.46;99998.56;5070480;28;45017;-83
2022/04/12 04:50:44;;;;;;;;;10.00;9.00;;;;;12.00;67.57;100029.41;5070459;28;45150;-84
2022/04/12 04:53:12;;;;;;;;;11.00;9.00;;;;;12.22;67.66;100075.44;5070741;28;45060;-80
2022/04/12 04:55:38;;;;;;;;;8.25;8.25;;;;;12.22;67.92;100091.25;5069281;28;45907;-80
2022/04/12 04:58:04;;;;;;;;;8.50;8.50;;;;;12.23;67.66;100090.41;5068786;28;45310;-80
2022/04/12 05:00:32;;;;;;;;;7.00;7.00;;;;;11.83;67.85;100031.75;5069731;28;45043;-80
2022/04/12 05:02:58;;;;;;;;;7.75;7.25;;;;;11.80;67.71;100025.50;5070249;28;45215;-81
2022/04/12 05:05:24;;;;;;;;;8.50;8.25;;;;;11.92;67.50;100059.09;5069243;28;45631;-80
2022/04/12 05:07:52;;;;;;;;;3.00;2.75;;;;;11.76;67.79;100044.72;5069781;28;45438;-79
2022/04/12 05:10:19;;;;;;;;;8.75;8.75;;;;;12.04;67.83;100098.81;5067488;28;45373;-80
2022/04/12 05:12:45;;;;;;;;;7.50;7.50;;;;;12.02;67.92;100111.97;5067003;28;45149;-80
2022/04/12 05:15:11;;;;;;;;;9.75;8.25;;;;;11.83;67.66;100088.78;5069780;28;45977;-80
2022/04/12 05:17:36;;;;;;;;;10.00;9.00;;;;;11.82;67.79;100093.19;5067161;28;45045;-82
2022/04/12 05:20:05;;;;;;;;;9.75;8.50;;;;;11.70;67.93;100074.47;5063216;28;45103;-86
2022/04/12 05:22:31;;;;;;;;;12.00;12.00;;;;;11.69;67.89;100077.06;5084823;28;45322;-80
2022/04/12 05:24:56;;;;;;;;;8.75;8.50;;;;;11.81;68.09;100101.88;5069570;28;45347;-81
2022/04/12 05:27:21;;;;;;;;;11.00;10.00;;;;;11.64;68.13;100066.47;5069569;28;45095;-81
2022/04/12 05:29:47;;;;;;;;;11.00;11.00;;;;;11.77;68.15;100094.81;5069942;28;45253;-80
2022/04/12 05:32:13;;;;;;;;;11.00;10.25;;;;;11.94;68.07;100115.31;5067206;28;45451;-79
2022/04/12 05:34:39;;;;;;;;;11.00;9.75;;;;;11.72;67.96;100077.13;5082678;28;47302;-80
2022/04/12 05:37:05;;;;;;;;;12.00;11.00;;;;;11.97;67.93;100118.00;5068924;28;45526;-80
2022/04/12 05:39:31;;;;;;;;;14.75;13.00;;;;;11.98;67.57;100106.63;5069329;28;45070;-79
2022/04/12 05:42:00;;;;;;;;;12.25;10.00;;;;;11.88;67.89;100092.41;5069908;28;45017;-82
2022/04/12 05:44:33;;;;;;;;;9.50;8.25;;;;;12.06;67.81;100126.06;5068839;28;45188;-79
2022/04/12 05:46:59;;;;;;;;;11.75;9.25;;;;;11.75;67.67;100061.38;5069361;28;45623;-80
2022/04/12 05:49:24;;;;;;;;;9.25;9.25;;;;;12.10;67.83;100122.63;5068578;28;45069;-78
2022/04/12 05:51:49;;;;;;;;;8.25;8.00;;;;;12.00;67.66;100099.63;5067278;28;45333;-79
2022/04/12 05:54:15;;;;;;;;;9.00;7.00;;;;;11.93;67.94;100084.59;5068322;28;52807;-80
2022/04/12 05:56:40;;;;;;;;;9.25;9.25;;;;;12.02;67.52;100090.00;5070234;28;45911;-79
2022/04/12 05:59:08;;;;;;;;;10.50;10.50;;;;;12.13;67.30;100101.63;5067134;28;45531;-79
2022/04/12 06:01:34;;;;;;;;;10.25;10.00;;;;;12.03;67.14;100076.00;5065581;28;45134;-79
2022/04/12 06:03:59;;;;;;;;;12.00;11.00;;;;;12.46;67.07;100139.94;5068580;28;45861;-86
2022/04/12 06:06:24;;;;;;;;;8.50;7.75;;;;;12.34;67.17;100107.25;5067857;28;45262;-82
2022/04/12 06:08:50;;;;;;;;;6.75;6.00;;;;;12.34;66.88;100095.84;5068285;28;45135;-79
2022/04/12 06:11:15;;;;;;;;;10.25;9.25;;;;;12.53;66.65;100110.22;5062345;28;45382;-79
2022/04/12 06:13:41;;;;;;;;;8.25;7.25;;;;;12.79;66.30;100151.06;5049025;28;45184;-81
2022/04/12 06:16:06;;;;;;;;;8.25;8.00;;;;;12.62;66.39;100102.47;5060559;28;45383;-80
2022/04/12 06:18:32;;;;;;;;;8.25;7.50;;;;;12.68;65.99;100118.38;5068400;28;45194;-78
2022/04/12 06:20:57;;;;;;;;;7.00;7.00;;;;;12.64;65.35;100095.44;5068573;28;45168;-80
2022/04/12 06:23:23;;;;;;;;;5.50;5.50;;;;;12.91;64.96;100119.63;5065618;28;45902;-80
2022/04/12 06:25:48;;;;;;;;;7.00;6.00;;;;;12.90;64.01;100111.66;5068142;28;45561;-89
2022/04/12 06:28:13;;;;;;;;;17.75;17.50;;;;;13.11;64.45;100142.78;5068540;28;45190;-80
2022/04/12 06:30:39;;;;;;;;;11.25;11.25;;;;;13.13;64.47;100139.28;5069894;28;45195;-82
2022/04/12 06:33:05;;;;;;;;;8.00;7.67;;;;;13.32;64.21;100169.50;5069333;28;46531;-84
2022/04/12 06:35:30;;;;;;;;;8.25;8.25;;;;;13.27;64.28;100136.00;5068169;28;45214;-81
2022/04/12 06:37:59;;;;;;;;;8.00;8.00;;;;;13.11;63.79;100111.13;5068802;28;45065;-80
2022/04/12 06:40:25;;;;;;;;;8.00;8.00;;;;;13.57;63.60;100181.28;5062828;28;45461;-81
2022/04/12 06:42:51;;;;;;;;;8.50;7.75;;;;;13.45;63.63;100145.88;5066619;28;46754;-87
2022/04/12 06:45:17;;;;;;;;;9.25;7.75;;;;;13.63;63.17;100191.03;5069145;28;45453;-93
2022/04/12 06:47:43;;;;;;;;;8.50;8.25;;;;;13.27;63.05;100128.06;5067624;28;45166;-86
2022/04/12 06:50:10;;;;;;;;;8.25;8.00;;;;;13.39;62.81;100150.22;5065641;28;45460;-82
2022/04/12 06:52:37;;;;;;;;;8.25;7.00;;;;;13.59;62.62;100190.09;5070166;28;45684;-89
2022/04/12 06:55:04;;;;;;;;;6.50;6.25;;;;;13.69;62.20;100199.00;5068565;28;45286;-87
2022/04/12 06:57:33;;;;;;;;;7.75;7.50;;;;;13.63;62.25;100198.94;5066218;28;45304;-83
2022/04/12 06:59:59;;;;;;;;;8.75;8.00;;;;;13.71;61.96;100223.72;5067518;28;46164;-87
2022/04/12 07:02:25;;;;;;;;;5.25;4.50;;;;;13.67;61.56;100206.03;5053978;28;45546;-87
2022/04/12 07:04:50;;;;;;;;;7.00;6.00;;;;;13.59;61.57;100191.84;5050618;28;45481;-89
2022/04/12 07:07:16;;;;;;;;;6.00;5.25;;;;;13.71;61.30;100207.88;5051350;28;45547;-87
2022/04/12 07:09:41;;;;;;;;;6.00;6.00;;;;;13.19;61.16;100138.47;5062739;28;45425;-82
2022/04/12 07:12:07;;;;;;;;;6.00;5.00;;;;;12.99;61.06;100116.19;5065069;28;45644;-81
2022/04/12 07:14:33;;;;;;;;;6.00;6.00;;;;;13.54;61.10;100202.34;5068149;28;45160;-81
2022/04/12 07:16:59;;;;;;;;;8.75;7.00;;;;;13.77;61.25;100226.44;5068604;28;44981;-87
2022/04/12 07:19:25;;;;;;;;;9.00;8.00;;;;;13.39;60.92;100162.53;5064970;28;45660;-80
2022/04/12 07:21:51;;;;;;;;;7.00;7.00;;;;;13.70;60.93;100205.22;5068409;28;45193;-81
2022/04/12 07:24:17;;;;;;;;;9.00;8.25;;;;;13.65;60.72;100181.38;5068128;28;45093;-87
2022/04/12 07:26:42;;;;;;;;;9.25;9.00;;;;;13.81;60.63;100204.47;5045024;28;46096;-80
2022/04/12 07:29:07;;;;;;;;;8.75;8.50;;;;;13.97;60.09;100231.09;5047596;28;45455;-81
2022/04/12 07:31:33;;;;;;;;;10.75;8.75;;;;;13.81;60.09;100209.75;5063593;28;46276;-82
2022/04/12 07:33:59;;;;;;;;;7.25;7.00;;;;;13.49;59.53;100148.59;5070984;28;45288;-81
2022/04/12 07:36:24;;;;;;;;;7.50;7.00;;;;;13.97;59.73;100210.81;5067427;28;45061;-82
2022/04/12 07:38:50;;;;;;;;;5.00;5.00;;;;;14.11;59.77;100232.16;5065364;28;45256;-82
2022/04/12 07:41:16;;;;;;;;;6.25;6.00;;;;;14.16;59.90;100225.16;5070968;28;45363;-82
2022/04/12 07:43:45;;;;;;;;;5.25;5.00;;;;;14.24;59.58;100227.91;5069324;28;45602;-81
2022/04/12 07:46:11;;;;;;;;;7.00;6.25;;;;;13.89;59.11;100160.56;5072103;28;45277;-81
2022/04/12 07:48:36;;;;;;;;;4.75;4.00;;;;;13.91;59.17;100148.25;5061896;28;45198;-82
2022/04/12 07:51:02;;;;;;;;;5.25;5.00;;;;;14.10;58.52;100159.03;5055648;28;45392;-82
2022/04/12 07:53:27;;;;;;;;;6.50;6.00;;;;;14.37;58.78;100198.06;5059656;28;45218;-86
2022/04/12 07:55:52;;;;;;;;;5.00;5.00;;;;;14.16;58.89;100140.59;5066770;28;45450;-83
2022/04/12 07:58:18;;;;;;;;;6.00;4.67;;;;;14.23;58.61;100144.16;5068812;28;47815;-81
2022/04/12 08:00:43;;;;;;;;;4.25;4.25;;;;;14.60;58.61;100193.03;5061655;28;47989;-81
2022/04/12 08:03:08;;;;;;;;;4.25;4.25;;;;;14.38;57.77;100145.22;5070019;28;45397;-83
2022/04/12 08:05:34;;;;;;;;;6.00;5.00;;;;;14.82;58.16;100213.50;5070315;28;45202;-80
2022/04/12 08:08:00;;;;;;;;;6.00;5.00;;;;;14.76;58.39;100192.31;5066303;28;45649;-80
2022/04/12 08:10:26;;;;;;;;;5.25;5.25;;;;;14.75;58.44;100179.94;5070301;28;45155;-83
2022/04/12 08:12:52;;;;;;;;;5.00;4.50;;;;;14.67;57.62;100147.25;5070741;27;45362;-81
2022/04/12 08:15:19;;;;;;;;;4.75;4.50;;;;;14.81;58.07;100169.41;5066101;28;45295;-81
2022/04/12 08:17:44;;;;;;;;;5.00;5.00;;;;;14.86;57.42;100175.63;5065359;28;45110;-82
2022/04/12 08:20:10;;;;;;;;;6.00;5.00;;;;;14.96;57.91;100190.69;5068665;28;47525;-81
2022/04/12 08:22:36;;;;;;;;;13.75;10.50;;;;;14.96;57.40;100163.34;5065636;28;45092;-81
2022/04/12 08:25:03;;;;;;;;;5.25;4.00;;;;;15.13;57.31;100195.25;5048459;28;45231;-81
2022/04/12 08:27:29;;;;;;;;;5.00;5.00;;;;;15.11;56.78;100187.28;5085020;28;45294;-87
2022/04/12 08:29:55;;;;;;;;;4.00;4.00;;;;;15.03;57.14;100148.44;5075455;27;47361;-82
2022/04/12 08:32:21;;;;;;;;;4.00;4.00;;;;;15.25;56.60;100187.38;5067623;28;45452;-80
2022/04/12 08:34:47;;;;;;;;;4.75;4.00;;;;;15.24;56.23;100164.44;5085148;28;45322;-82
2022/04/12 08:37:12;;;;;;;;;4.75;4.00;;;;;15.47;56.94;100197.25;5071247;28;45095;-84
2022/04/12 08:39:38;;;;;;;;;5.00;4.00;;;;;15.16;56.74;100119.38;5082236;27;46392;-81
2022/04/12 08:42:05;;;;;;;;;4.75;4.25;;;;;15.70;56.64;100209.75;5070154;28;45060;-81
2022/04/12 08:44:32;;;;;;;;;4.00;3.75;;;;;15.44;56.11;100140.72;5058691;28;45191;-82
2022/04/12 08:47:01;;;;;;;;;3.75;3.75;;;;;15.90;55.96;100202.78;5060630;28;45454;-82
2022/04/12 08:49:28;;;;;;;;;3.25;3.00;;;;;15.87;55.55;100175.41;5064128;28;46339;-87
2022/04/12 08:51:53;;;;;;;;;5.25;4.00;;;;;16.08;54.98;100206.38;5060746;28;45472;-86
2022/04/12 08:54:20;;;;;;;;;3.75;3.00;;;;;15.68;54.57;100119.69;5067340;28;45082;-87
2022/04/12 08:56:50;;;;;;;;;2.75;2.50;;;;;16.10;53.83;100183.41;5067217;28;45361;-82
2022/04/12 08:59:17;;;;;;;;;2.00;2.00;;;;;16.09;53.80;100177.22;5067929;28;45402;-87
2022/04/12 09:01:43;;;;;;;;;4.50;4.00;;;;;16.38;53.98;100209.13;5068491;28;45933;-85
2022/04/12 09:04:12;;;;;;;;;4.50;3.00;;;;;15.89;53.72;100113.56;5064511;28;45264;-88
2022/04/12 09:06:51;;;;;;;;;3.75;3.75;;;;;16.27;53.07;100175.53;5064790;28;45147;-89
2022/04/12 09:09:20;;;;;;;;;3.00;2.50;;;;;15.89;52.36;100080.88;5057539;28;45814;-83
2022/04/12 09:11:55;;;;;;;;;3.50;3.50;;;;;16.40;52.08;100140.16;5063662;28;45480;-88
2022/04/12 09:14:21;;;;;;;;;2.00;2.00;;;;;16.43;51.66;100151.66;5061935;28;45139;-83
2022/04/12 09:16:46;;;;;;;;;2.00;1.75;;;;;16.64;51.51;100160.53;5065806;28;45472;-86
2022/04/12 09:19:12;;;;;;;;;3.50;2.50;;;;;16.78;50.71;100177.38;5067871;28;45260;-83
2022/04/12 09:21:46;;;;;;;;;2.00;2.00;;;;;16.42;50.90;100106.59;5069950;28;45119;-84
2022/04/12 09:24:20;;;;;;;;;1.75;1.25;;;;;16.52;50.89;100103.94;5066561;28;45389;-87
2022/04/12 09:26:55;;;;;;;;;2.25;2.00;;;;;17.16;51.19;100208.34;5060560;28;45371;-85
2022/04/12 09:29:26;;;;;;;;;3.50;2.50;;;;;16.82;50.76;100144.66;5061828;28;45490;-82
2022/04/12 09:31:55;;;;;;;;;2.00;2.00;;;;;17.05;50.57;100170.31;5065792;28;45770;-92
2022/04/12 09:34:21;;;;;;;;;3.00;2.50;;;;;16.98;50.63;100164.09;5065196;28;45445;-83
2022/04/12 09:36:50;;;;;;;;;1.00;1.00;;;;;17.27;50.36;100217.19;5064858;28;45566;-93
2022/04/12 09:39:19;;;;;;;;;2.75;2.00;;;;;17.21;50.15;100201.25;5080140;28;46712;-81
2022/04/12 09:41:48;;;;;;;;;3.00;3.00;;;;;17.05;50.74;100149.06;5050883;28;45514;-81
2022/04/12 09:44:18;;;;;;;;;3.00;2.00;;;;;16.79;50.13;100086.25;5050093;28;45483;-81
2022/04/12 09:46:43;;;;;;;;;2.75;2.75;;;;;17.28;49.99;100169.34;5051389;28;45526;-83
2022/04/12 09:49:09;;;;;;;;;4.25;4.00;;;;;17.04;49.89;100113.63;5052732;28;46643;-84
2022/04/12 09:51:38;;;;;;;;;3.75;3.00;;;;;17.20;49.99;100133.97;5053212;28;45547;-83
2022/04/12 09:54:08;;;;;;;;;4.00;3.00;;;;;17.54;50.82;100187.91;5060308;28;45273;-84
2022/04/12 09:56:36;;;;;;;;;3.75;3.75;;;;;17.18;50.35;100119.81;5069572;28;45264;-86
2022/04/12 09:59:06;;;;;;;;;2.00;2.00;;;;;17.64;50.62;100190.53;5064220;28;47430;-83
2022/04/12 10:01:34;;;;;;;;;4.25;4.00;;;;;17.28;50.71;100116.22;5063811;28;45695;-83
2022/04/12 10:03:59;;;;;;;;;5.00;4.00;;;;;17.66;50.34;100175.47;5067968;28;45074;-82
2022/04/12 10:06:27;;;;;;;;;5.25;4.00;;;;;17.71;50.52;100161.25;5054868;28;45702;-82
2022/04/12 10:08:52;;;;;;;;;3.00;3.00;;;;;17.88;50.71;100177.19;5062753;28;45890;-82
2022/04/12 10:11:18;;;;;;;;;3.00;3.00;;;;;17.69;50.82;100139.13;5054917;28;45532;-82
2022/04/12 10:13:44;;;;;;;;;3.00;3.00;;;;;17.71;50.15;100128.50;5058487;28;45102;-87
2022/04/12 10:16:12;;;;;;;;;3.00;3.00;;;;;17.62;49.69;100094.84;5048480;28;45718;-83
2022/04/12 10:18:39;;;;;;;;;2.75;2.75;;;;;17.82;49.98;100115.19;5063566;28;45264;-84
2022/04/12 10:21:05;;;;;;;;;4.00;4.00;;;;;17.99;49.58;100129.28;5060713;28;46002;-83
2022/04/12 10:23:33;;;;;;;;;3.75;3.25;;;;;17.84;49.11;100090.38;5059473;28;45174;-84
2022/04/12 10:26:00;;;;;;;;;4.25;3.00;;;;;17.90;49.51;100086.78;5067848;28;45182;-89
2022/04/12 10:28:29;;;;;;;;;4.00;3.00;;;;;18.04;50.01;100088.47;5069426;28;45701;-88
2022/04/12 10:31:22;;;;;;;;;3.00;3.00;;;;;18.13;49.88;100092.84;5067889;28;45784;-92
2022/04/12 10:34:11;;;;;;;;;3.75;3.75;;;;;18.19;50.16;100079.50;5069564;28;44986;-89
2022/04/12 10:36:55;;;;;;;;;3.00;3.00;;;;;18.69;48.93;100152.78;5067853;28;45192;-86
2022/04/12 10:39:35;;;;;;;;;3.00;3.00;;;;;18.85;48.64;100155.31;5058626;28;46333;-81
2022/04/12 10:42:04;;;;;;;;;2.75;2.50;;;;;18.54;48.40;100091.66;5069518;28;45255;-83
2022/04/12 10:44:36;;;;;;;;;5.75;4.50;;;;;18.89;48.83;100143.75;5068725;28;45258;-80
2022/04/12 10:47:02;;;;;;;;;4.00;3.25;;;;;19.13;48.72;100156.81;5070896;28;45119;-88
2022/04/12 10:49:34;;;;;;;;;5.00;4.00;;;;;19.17;48.49;100158.56;5065674;28;46850;-82
2022/04/12 10:52:00;;;;;;;;;2.50;2.50;;;;;18.50;48.32;100039.34;5068044;28;45142;-86
2022/04/12 10:54:34;;;;;;;;;4.50;3.50;;;;;19.17;47.88;100136.38;5063158;28;45335;-85
2022/04/12 10:57:18;;;;;;;;;2.50;2.50;;;;;19.34;47.68;100166.38;5068773;28;45385;-81
2022/04/12 10:59:50;;;;;;;;;2.50;2.25;;;;;18.94;47.48;100096.66;5063495;28;45927;-90
2022/04/12 11:02:16;;;;;;;;;3.50;3.25;;;;;19.30;47.74;100160.19;5067111;28;45992;-87
2022/04/12 11:04:42;;;;;;;;;5.00;4.00;;;;;18.93;47.59;100094.88;5062272;28;45418;-83
2022/04/12 11:07:07;;;;;;;;;3.00;2.25;;;;;19.26;47.24;100152.25;5060704;28;45189;-84
2022/04/12 11:09:33;;;;;;;;;3.50;3.50;;;;;19.57;46.96;100203.47;5049087;28;45494;-84
2022/04/12 11:12:01;;;;;;;;;1.75;1.75;;;;;19.29;47.25;100144.22;5050807;28;45553;-82
2022/04/12 11:14:32;;;;;;;;;3.00;3.00;;;;;19.26;47.18;100136.25;5049588;28;45752;-91
2022/04/12 11:17:01;;;;;;;;;4.75;2.75;;;;;19.69;47.03;100200.69;5051099;28;45827;-82
2022/04/12 11:19:28;;;;;;;;;3.50;2.25;;;;;19.58;47.14;100184.78;5057151;28;46114;-82
2022/04/12 11:21:56;;;;;;;;;3.00;2.25;;;;;19.78;46.71;100215.69;5063818;28;46098;-82
2022/04/12 11:24:22;;;;;;;;;3.50;3.50;;;;;19.80;46.86;100216.53;5065319;28;45053;-90